Terminal Aerodrome Forecast
Issued by NWS

Home | Current Version | Previous Version | Graphics & Text | Print | Product List | Glossary On
Versions: 1 2 3 4 5 6 7 8 9 10 11 12 13 14 15 16 17 18 19 20 21 22
438
FTUS41 KCLE 182053 AAA
TAFFDY
TAF AMD
KFDY 182053Z 1821/1918 16012KT 3SM -SHRA OVC025 WS020/20045KT
      TEMPO 1822/1902 2SM -SHRA BKN008
     FM190300 32020G35KT 5SM BR OVC010=

USA.gov is the U.S. government's official web portal to all federal, state and local government web resources and services.